Ana Sayfa
METAR-TAF:

METAR-TAF

Havaalanları :

Claremore, Oklahoma, Amerika Birleşik Devletleri

Enlem: 36-17-40N, Boylam: 095-28-47W, yükseklik: 221 m

Güncel hava durumu gözlemi

Rapor saat 21:15 UTC de 33 dakika önce yapıldı.
Rüzgar güney/güneydoğudan 6 kt
Sıcaklık 31°C
Nem 66%
Basınç 1022 hPa
Görüş mesafesi: 16.1 km
4200 ft yükseklikte az bulutlu
9000 ft yükseklikte az bulutlu

METAR: KGCM 202115Z AUTO 16006KT 10SM FEW042 FEW090 31/24 A3019 RMK AO2 TSNO

Saat: 16:48 (21:48 UTC)


TAF: eksik

4.000'den fazla havaalanı için hava durumu gözlemleri ve tahminleri (METAR ve TAF raporları).

Kullanılabilir istasyonlar harita üzerinde sarı ve kırmızı noktalarla gösterilir.

İstasyonun adını görmek için fareyi noktanın üzerinde gezdirin.

Sonrasında hava gözlem ve tahminlerini görmek için tıklayın.

Haritayı değiştirmek için: yaklaştırmak için siyah artı işaretli yeşil düğmeye ve uzaklaştırmak için de eksi işaretli düğmeye hızla tıklayın; bitişik haritalar için yeşil okları kullanın.


METAR-TAF: